sensor_id;sensor_type;location;lat;lon;timestamp;P1;durP1;ratioP1;P2;durP2;ratioP2
20421;SDS011;10370;53.102;18.034;2022-10-26T00:03:21;96.65;;;17.90;;
20421;SDS011;10370;53.102;18.034;2022-10-26T00:08:41;261.35;;;23.42;;
20421;SDS011;10370;53.102;18.034;2022-10-26T00:14:03;223.82;;;19.58;;
20421;SDS011;10370;53.102;18.034;2022-10-26T00:19:24;306.35;;;25.35;;
20421;SDS011;10370;53.102;18.034;2022-10-26T00:24:45;148.38;;;19.65;;
20421;SDS011;10370;53.102;18.034;2022-10-26T00:30:06;36.95;;;17.33;;
20421;SDS011;10370;53.102;18.034;2022-10-26T00:35:27;47.83;;;16.45;;
20421;SDS011;10370;53.102;18.034;2022-10-26T00:41:04;35.88;;;16.75;;
20421;SDS011;10370;53.102;18.034;2022-10-26T00:51:55;119.15;;;18.23;;
20421;SDS011;10370;53.102;18.034;2022-10-26T00:57:16;211.90;;;19.67;;
20421;SDS011;10370;53.102;18.034;2022-10-26T01:02:38;84.05;;;15.88;;
20421;SDS011;10370;53.102;18.034;2022-10-26T01:07:59;36.08;;;14.57;;
20421;SDS011;10370;53.102;18.034;2022-10-26T01:13:20;78.47;;;15.63;;
20421;SDS011;10370;53.102;18.034;2022-10-26T01:18:46;164.57;;;17.90;;
20421;SDS011;10370;53.102;18.034;2022-10-26T01:41:35;64.25;;;12.60;;
20421;SDS011;10370;53.102;18.034;2022-10-26T01:46:57;226.38;;;14.07;;
20421;SDS011;10370;53.102;18.034;2022-10-26T01:52:20;142.98;;;12.13;;
20421;SDS011;10370;53.102;18.034;2022-10-26T01:57:41;121.35;;;10.85;;
20421;SDS011;10370;53.102;18.034;2022-10-26T02:03:20;127.38;;;13.18;;
20421;SDS011;10370;53.102;18.034;2022-10-26T02:08:55;172.65;;;13.50;;
20421;SDS011;10370;53.102;18.034;2022-10-26T02:14:23;126.65;;;12.60;;
20421;SDS011;10370;53.102;18.034;2022-10-26T02:19:56;134.27;;;14.13;;
20421;SDS011;10370;53.102;18.034;2022-10-26T02:25:22;144.18;;;13.27;;
20421;SDS011;10370;53.102;18.034;2022-10-26T02:30:48;66.20;;;12.35;;
20421;SDS011;10370;53.102;18.034;2022-10-26T02:36:15;30.85;;;13.35;;
20421;SDS011;10370;53.102;18.034;2022-10-26T02:41:38;29.17;;;12.55;;
20421;SDS011;10370;53.102;18.034;2022-10-26T02:47:01;26.70;;;12.00;;
20421;SDS011;10370;53.102;18.034;2022-10-26T02:57:50;33.70;;;12.52;;
20421;SDS011;10370;53.102;18.034;2022-10-26T03:03:15;26.48;;;12.85;;
20421;SDS011;10370;53.102;18.034;2022-10-26T03:08:38;29.73;;;11.48;;
20421;SDS011;10370;53.102;18.034;2022-10-26T03:13:59;28.42;;;11.43;;
20421;SDS011;10370;53.102;18.034;2022-10-26T03:19:20;35.83;;;13.00;;
20421;SDS011;10370;53.102;18.034;2022-10-26T03:24:41;38.80;;;14.60;;
20421;SDS011;10370;53.102;18.034;2022-10-26T03:30:02;90.25;;;17.83;;
20421;SDS011;10370;53.102;18.034;2022-10-26T03:35:24;94.85;;;16.58;;
20421;SDS011;10370;53.102;18.034;2022-10-26T03:40:45;143.55;;;17.52;;
20421;SDS011;10370;53.102;18.034;2022-10-26T03:46:07;70.03;;;16.85;;
20421;SDS011;10370;53.102;18.034;2022-10-26T03:51:28;227.75;;;20.60;;
20421;SDS011;10370;53.102;18.034;2022-10-26T03:56:50;115.78;;;16.85;;
20421;SDS011;10370;53.102;18.034;2022-10-26T04:02:13;73.95;;;16.42;;
20421;SDS011;10370;53.102;18.034;2022-10-26T04:07:35;66.25;;;16.33;;
20421;SDS011;10370;53.102;18.034;2022-10-26T04:12:55;141.25;;;17.52;;
20421;SDS011;10370;53.102;18.034;2022-10-26T04:18:19;148.10;;;17.83;;
20421;SDS011;10370;53.102;18.034;2022-10-26T04:23:39;124.05;;;17.05;;
20421;SDS011;10370;53.102;18.034;2022-10-26T04:29:00;125.30;;;17.40;;
20421;SDS011;10370;53.102;18.034;2022-10-26T04:34:25;128.63;;;16.55;;
20421;SDS011;10370;53.102;18.034;2022-10-26T04:39:46;110.78;;;17.13;;
20421;SDS011;10370;53.102;18.034;2022-10-26T04:45:07;81.78;;;15.30;;
20421;SDS011;10370;53.102;18.034;2022-10-26T04:50:28;118.25;;;17.30;;
20421;SDS011;10370;53.102;18.034;2022-10-26T04:55:54;70.53;;;15.10;;
20421;SDS011;10370;53.102;18.034;2022-10-26T05:01:19;67.53;;;16.67;;
20421;SDS011;10370;53.102;18.034;2022-10-26T05:06:40;64.63;;;15.02;;
20421;SDS011;10370;53.102;18.034;2022-10-26T05:12:01;100.97;;;18.75;;
20421;SDS011;10370;53.102;18.034;2022-10-26T05:17:22;141.35;;;16.83;;
20421;SDS011;10370;53.102;18.034;2022-10-26T05:22:52;122.90;;;16.80;;
20421;SDS011;10370;53.102;18.034;2022-10-26T05:28:14;75.82;;;16.50;;
20421;SDS011;10370;53.102;18.034;2022-10-26T05:33:36;91.45;;;17.33;;
20421;SDS011;10370;53.102;18.034;2022-10-26T05:38:57;71.78;;;17.25;;
20421;SDS011;10370;53.102;18.034;2022-10-26T05:44:18;38.72;;;13.98;;
20421;SDS011;10370;53.102;18.034;2022-10-26T05:49:39;88.57;;;15.68;;
20421;SDS011;10370;53.102;18.034;2022-10-26T05:55:00;96.22;;;16.33;;
20421;SDS011;10370;53.102;18.034;2022-10-26T06:00:21;60.20;;;16.65;;
20421;SDS011;10370;53.102;18.034;2022-10-26T06:05:54;88.18;;;15.55;;
20421;SDS011;10370;53.102;18.034;2022-10-26T06:11:17;59.63;;;15.05;;
20421;SDS011;10370;53.102;18.034;2022-10-26T06:16:41;68.88;;;15.98;;
20421;SDS011;10370;53.102;18.034;2022-10-26T06:22:13;60.88;;;14.48;;
20421;SDS011;10370;53.102;18.034;2022-10-26T06:27:45;84.13;;;16.58;;
20421;SDS011;10370;53.102;18.034;2022-10-26T06:33:29;101.03;;;15.98;;
20421;SDS011;10370;53.102;18.034;2022-10-26T06:38:51;45.85;;;15.95;;
20421;SDS011;10370;53.102;18.034;2022-10-26T06:44:20;106.60;;;16.90;;
20421;SDS011;10370;53.102;18.034;2022-10-26T06:55:44;74.10;;;16.13;;
20421;SDS011;10370;53.102;18.034;2022-10-26T07:01:07;91.95;;;15.80;;
20421;SDS011;10370;53.102;18.034;2022-10-26T07:06:31;58.83;;;14.45;;
20421;SDS011;10370;53.102;18.034;2022-10-26T07:11:53;93.97;;;15.98;;
20421;SDS011;10370;53.102;18.034;2022-10-26T07:17:14;74.43;;;15.25;;
20421;SDS011;10370;53.102;18.034;2022-10-26T07:22:36;173.10;;;17.15;;
20421;SDS011;10370;53.102;18.034;2022-10-26T07:27:57;48.42;;;12.60;;
20421;SDS011;10370;53.102;18.034;2022-10-26T07:33:19;53.63;;;12.82;;
20421;SDS011;10370;53.102;18.034;2022-10-26T07:38:40;39.45;;;13.18;;
20421;SDS011;10370;53.102;18.034;2022-10-26T07:44:00;38.72;;;12.35;;
20421;SDS011;10370;53.102;18.034;2022-10-26T07:49:21;47.65;;;12.68;;
20421;SDS011;10370;53.102;18.034;2022-10-26T07:54:45;34.65;;;12.27;;
20421;SDS011;10370;53.102;18.034;2022-10-26T08:00:06;41.50;;;13.68;;
20421;SDS011;10370;53.102;18.034;2022-10-26T08:05:29;40.35;;;13.02;;
20421;SDS011;10370;53.102;18.034;2022-10-26T08:10:50;52.38;;;14.00;;
20421;SDS011;10370;53.102;18.034;2022-10-26T08:16:12;45.67;;;13.88;;
20421;SDS011;10370;53.102;18.034;2022-10-26T08:26:54;35.17;;;13.80;;
20421;SDS011;10370;53.102;18.034;2022-10-26T08:37:38;45.38;;;15.07;;
20421;SDS011;10370;53.102;18.034;2022-10-26T08:43:09;30.27;;;13.48;;
20421;SDS011;10370;53.102;18.034;2022-10-26T08:48:44;45.15;;;14.20;;
20421;SDS011;10370;53.102;18.034;2022-10-26T08:54:09;39.17;;;13.07;;
20421;SDS011;10370;53.102;18.034;2022-10-26T08:59:42;46.22;;;13.60;;
20421;SDS011;10370;53.102;18.034;2022-10-26T09:17:31;29.90;;;14.50;;
20421;SDS011;10370;53.102;18.034;2022-10-26T09:28:46;29.70;;;16.02;;
20421;SDS011;10370;53.102;18.034;2022-10-26T09:34:11;29.13;;;15.90;;
20421;SDS011;10370;53.102;18.034;2022-10-26T09:50:50;30.83;;;16.67;;
20421;SDS011;10370;53.102;18.034;2022-10-26T09:56:12;30.13;;;17.00;;
20421;SDS011;10370;53.102;18.034;2022-10-26T10:01:34;31.08;;;17.30;;
20421;SDS011;10370;53.102;18.034;2022-10-26T10:12:21;31.67;;;16.88;;
20421;SDS011;10370;53.102;18.034;2022-10-26T10:17:48;26.95;;;15.30;;
20421;SDS011;10370;53.102;18.034;2022-10-26T10:23:11;31.65;;;17.33;;
20421;SDS011;10370;53.102;18.034;2022-10-26T10:28:59;30.67;;;16.55;;
20421;SDS011;10370;53.102;18.034;2022-10-26T10:34:20;29.27;;;17.33;;
20421;SDS011;10370;53.102;18.034;2022-10-26T10:39:42;33.85;;;17.17;;
20421;SDS011;10370;53.102;18.034;2022-10-26T10:45:03;33.58;;;17.40;;
20421;SDS011;10370;53.102;18.034;2022-10-26T10:50:25;32.17;;;16.73;;
20421;SDS011;10370;53.102;18.034;2022-10-26T10:55:53;33.08;;;17.23;;
20421;SDS011;10370;53.102;18.034;2022-10-26T11:01:20;35.75;;;18.02;;
20421;SDS011;10370;53.102;18.034;2022-10-26T11:12:08;28.15;;;16.10;;
20421;SDS011;10370;53.102;18.034;2022-10-26T11:17:57;30.85;;;16.73;;
20421;SDS011;10370;53.102;18.034;2022-10-26T11:29:19;31.88;;;16.52;;
20421;SDS011;10370;53.102;18.034;2022-10-26T11:40:43;32.47;;;16.70;;
20421;SDS011;10370;53.102;18.034;2022-10-26T11:57:36;31.52;;;16.83;;
20421;SDS011;10370;53.102;18.034;2022-10-26T12:03:02;32.67;;;16.83;;
20421;SDS011;10370;53.102;18.034;2022-10-26T12:08:30;30.23;;;16.65;;
20421;SDS011;10370;53.102;18.034;2022-10-26T12:14:33;32.05;;;16.38;;
20421;SDS011;10370;53.102;18.034;2022-10-26T12:31:53;31.50;;;17.30;;
20421;SDS011;10370;53.102;18.034;2022-10-26T12:37:29;32.38;;;17.20;;
20421;SDS011;10370;53.102;18.034;2022-10-26T12:42:52;31.67;;;17.25;;
20421;SDS011;10370;53.102;18.034;2022-10-26T13:10:42;30.65;;;17.50;;
20421;SDS011;10370;53.102;18.034;2022-10-26T13:22:18;29.98;;;17.77;;
20421;SDS011;10370;53.102;18.034;2022-10-26T13:27:42;33.13;;;18.60;;
20421;SDS011;10370;53.102;18.034;2022-10-26T13:33:05;33.45;;;18.10;;
20421;SDS011;10370;53.102;18.034;2022-10-26T13:38:33;31.75;;;18.42;;
20421;SDS011;10370;53.102;18.034;2022-10-26T13:43:55;31.17;;;17.75;;
20421;SDS011;10370;53.102;18.034;2022-10-26T13:49:19;34.83;;;18.48;;
20421;SDS011;10370;53.102;18.034;2022-10-26T13:54:54;39.35;;;18.27;;
20421;SDS011;10370;53.102;18.034;2022-10-26T14:00:20;33.53;;;17.92;;
20421;SDS011;10370;53.102;18.034;2022-10-26T14:05:42;32.30;;;18.33;;
20421;SDS011;10370;53.102;18.034;2022-10-26T14:11:06;35.22;;;18.17;;
20421;SDS011;10370;53.102;18.034;2022-10-26T14:16:32;37.45;;;18.95;;
20421;SDS011;10370;53.102;18.034;2022-10-26T14:21:53;39.03;;;19.20;;
20421;SDS011;10370;53.102;18.034;2022-10-26T14:27:15;35.35;;;20.65;;
20421;SDS011;10370;53.102;18.034;2022-10-26T14:32:37;37.65;;;20.67;;
20421;SDS011;10370;53.102;18.034;2022-10-26T14:38:02;42.65;;;21.50;;
20421;SDS011;10370;53.102;18.034;2022-10-26T14:43:31;51.67;;;25.40;;
20421;SDS011;10370;53.102;18.034;2022-10-26T14:48:53;45.50;;;24.08;;
20421;SDS011;10370;53.102;18.034;2022-10-26T14:54:20;40.35;;;22.02;;
20421;SDS011;10370;53.102;18.034;2022-10-26T14:59:43;46.75;;;23.15;;
20421;SDS011;10370;53.102;18.034;2022-10-26T15:16:06;56.15;;;29.40;;
20421;SDS011;10370;53.102;18.034;2022-10-26T15:21:46;75.38;;;32.50;;
20421;SDS011;10370;53.102;18.034;2022-10-26T15:27:14;74.53;;;35.35;;
20421;SDS011;10370;53.102;18.034;2022-10-26T15:32:35;77.53;;;38.00;;
20421;SDS011;10370;53.102;18.034;2022-10-26T15:37:57;78.50;;;37.05;;
20421;SDS011;10370;53.102;18.034;2022-10-26T15:43:20;65.30;;;32.03;;
20421;SDS011;10370;53.102;18.034;2022-10-26T15:48:41;66.03;;;30.65;;
20421;SDS011;10370;53.102;18.034;2022-10-26T15:54:14;64.93;;;34.00;;
20421;SDS011;10370;53.102;18.034;2022-10-26T15:59:36;70.75;;;33.92;;
20421;SDS011;10370;53.102;18.034;2022-10-26T16:04:58;92.57;;;43.70;;
20421;SDS011;10370;53.102;18.034;2022-10-26T16:10:21;102.03;;;49.50;;
20421;SDS011;10370;53.102;18.034;2022-10-26T16:15:44;154.55;;;80.13;;
20421;SDS011;10370;53.102;18.034;2022-10-26T16:21:16;154.45;;;77.30;;
20421;SDS011;10370;53.102;18.034;2022-10-26T16:26:49;152.30;;;80.90;;
20421;SDS011;10370;53.102;18.034;2022-10-26T16:32:13;144.82;;;67.78;;
20421;SDS011;10370;53.102;18.034;2022-10-26T16:37:35;163.05;;;79.05;;
20421;SDS011;10370;53.102;18.034;2022-10-26T16:42:56;155.93;;;75.05;;
20421;SDS011;10370;53.102;18.034;2022-10-26T16:48:18;163.35;;;79.50;;
20421;SDS011;10370;53.102;18.034;2022-10-26T16:53:39;151.73;;;76.63;;
20421;SDS011;10370;53.102;18.034;2022-10-26T16:59:01;122.63;;;62.42;;
20421;SDS011;10370;53.102;18.034;2022-10-26T17:04:34;806.65;;;85.97;;
20421;SDS011;10370;53.102;18.034;2022-10-26T17:09:58;656.25;;;80.60;;
20421;SDS011;10370;53.102;18.034;2022-10-26T17:15:19;164.75;;;67.70;;
20421;SDS011;10370;53.102;18.034;2022-10-26T17:26:06;439.52;;;98.82;;
20421;SDS011;10370;53.102;18.034;2022-10-26T17:36:49;283.27;;;89.45;;
20421;SDS011;10370;53.102;18.034;2022-10-26T17:48:34;288.17;;;92.00;;
20421;SDS011;10370;53.102;18.034;2022-10-26T17:54:13;321.77;;;83.65;;
20421;SDS011;10370;53.102;18.034;2022-10-26T17:59:49;338.30;;;108.72;;
20421;SDS011;10370;53.102;18.034;2022-10-26T18:05:31;572.13;;;135.77;;
20421;SDS011;10370;53.102;18.034;2022-10-26T18:10:59;727.67;;;141.73;;
20421;SDS011;10370;53.102;18.034;2022-10-26T18:16:24;578.22;;;118.35;;
20421;SDS011;10370;53.102;18.034;2022-10-26T18:22:01;640.92;;;141.52;;
20421;SDS011;10370;53.102;18.034;2022-10-26T18:27:39;566.88;;;107.70;;
20421;SDS011;10370;53.102;18.034;2022-10-26T18:33:16;594.65;;;98.50;;
20421;SDS011;10370;53.102;18.034;2022-10-26T18:38:39;470.35;;;91.07;;
20421;SDS011;10370;53.102;18.034;2022-10-26T18:44:12;618.28;;;98.13;;
20421;SDS011;10370;53.102;18.034;2022-10-26T18:49:52;626.30;;;101.53;;
20421;SDS011;10370;53.102;18.034;2022-10-26T19:00:40;654.33;;;97.63;;
20421;SDS011;10370;53.102;18.034;2022-10-26T19:11:49;499.77;;;108.53;;
20421;SDS011;10370;53.102;18.034;2022-10-26T19:17:21;376.83;;;92.60;;
20421;SDS011;10370;53.102;18.034;2022-10-26T19:22:59;351.90;;;90.05;;
20421;SDS011;10370;53.102;18.034;2022-10-26T19:28:37;289.63;;;82.35;;
20421;SDS011;10370;53.102;18.034;2022-10-26T19:34:01;242.98;;;80.07;;
20421;SDS011;10370;53.102;18.034;2022-10-26T19:45:05;498.80;;;93.68;;
20421;SDS011;10370;53.102;18.034;2022-10-26T19:50:36;217.50;;;78.10;;
20421;SDS011;10370;53.102;18.034;2022-10-26T19:56:14;325.42;;;79.10;;
20421;SDS011;10370;53.102;18.034;2022-10-26T20:01:36;622.22;;;123.38;;
20421;SDS011;10370;53.102;18.034;2022-10-26T20:06:58;460.10;;;80.65;;
20421;SDS011;10370;53.102;18.034;2022-10-26T20:12:19;465.60;;;78.88;;
20421;SDS011;10370;53.102;18.034;2022-10-26T20:17:40;358.52;;;67.47;;
20421;SDS011;10370;53.102;18.034;2022-10-26T20:23:05;456.92;;;71.88;;
20421;SDS011;10370;53.102;18.034;2022-10-26T20:28:27;267.95;;;63.03;;
20421;SDS011;10370;53.102;18.034;2022-10-26T20:33:50;417.35;;;65.93;;
20421;SDS011;10370;53.102;18.034;2022-10-26T20:39:14;549.40;;;71.63;;
20421;SDS011;10370;53.102;18.034;2022-10-26T20:44:38;405.75;;;66.20;;
20421;SDS011;10370;53.102;18.034;2022-10-26T20:50:03;337.42;;;63.30;;
20421;SDS011;10370;53.102;18.034;2022-10-26T20:55:30;417.02;;;65.85;;
20421;SDS011;10370;53.102;18.034;2022-10-26T21:01:01;248.32;;;57.65;;
20421;SDS011;10370;53.102;18.034;2022-10-26T21:06:24;168.18;;;56.67;;
20421;SDS011;10370;53.102;18.034;2022-10-26T21:11:45;153.40;;;54.78;;
20421;SDS011;10370;53.102;18.034;2022-10-26T21:17:08;163.52;;;55.63;;
20421;SDS011;10370;53.102;18.034;2022-10-26T21:22:32;203.80;;;54.80;;
20421;SDS011;10370;53.102;18.034;2022-10-26T21:27:53;231.60;;;52.72;;
20421;SDS011;10370;53.102;18.034;2022-10-26T21:33:17;207.50;;;49.50;;
20421;SDS011;10370;53.102;18.034;2022-10-26T21:38:40;237.50;;;51.17;;
20421;SDS011;10370;53.102;18.034;2022-10-26T21:44:05;325.33;;;56.78;;
20421;SDS011;10370;53.102;18.034;2022-10-26T21:49:42;300.77;;;57.05;;
20421;SDS011;10370;53.102;18.034;2022-10-26T21:55:03;378.15;;;62.42;;
20421;SDS011;10370;53.102;18.034;2022-10-26T22:00:24;164.10;;;52.75;;
20421;SDS011;10370;53.102;18.034;2022-10-26T22:05:51;211.73;;;55.05;;
20421;SDS011;10370;53.102;18.034;2022-10-26T22:11:13;185.02;;;51.75;;
20421;SDS011;10370;53.102;18.034;2022-10-26T22:16:40;156.65;;;48.10;;
20421;SDS011;10370;53.102;18.034;2022-10-26T22:22:01;139.27;;;46.65;;
20421;SDS011;10370;53.102;18.034;2022-10-26T22:27:23;166.32;;;47.60;;
20421;SDS011;10370;53.102;18.034;2022-10-26T22:32:45;236.13;;;47.85;;
20421;SDS011;10370;53.102;18.034;2022-10-26T22:38:08;160.55;;;45.85;;
20421;SDS011;10370;53.102;18.034;2022-10-26T22:43:28;298.38;;;53.35;;
20421;SDS011;10370;53.102;18.034;2022-10-26T22:48:53;174.35;;;53.60;;
20421;SDS011;10370;53.102;18.034;2022-10-26T22:54:15;127.97;;;50.50;;
20421;SDS011;10370;53.102;18.034;2022-10-26T22:59:36;129.85;;;51.35;;
20421;SDS011;10370;53.102;18.034;2022-10-26T23:04:57;124.35;;;50.35;;
20421;SDS011;10370;53.102;18.034;2022-10-26T23:10:17;130.48;;;51.85;;
20421;SDS011;10370;53.102;18.034;2022-10-26T23:15:38;116.75;;;49.35;;
20421;SDS011;10370;53.102;18.034;2022-10-26T23:20:59;161.65;;;53.28;;
20421;SDS011;10370;53.102;18.034;2022-10-26T23:26:20;123.22;;;50.47;;
20421;SDS011;10370;53.102;18.034;2022-10-26T23:31:41;104.93;;;47.90;;
20421;SDS011;10370;53.102;18.034;2022-10-26T23:37:02;116.57;;;50.08;;
20421;SDS011;10370;53.102;18.034;2022-10-26T23:42:22;99.03;;;46.72;;
20421;SDS011;10370;53.102;18.034;2022-10-26T23:47:43;118.05;;;46.53;;
20421;SDS011;10370;53.102;18.034;2022-10-26T23:53:04;109.53;;;47.42;;
20421;SDS011;10370;53.102;18.034;2022-10-26T23:58:25;99.88;;;46.72;;
